ADDS METAR Data INFO
IDs: Format: Raw Decoded Include TAF

Data at: 0338 UTC 28 Jun 2017

KEEN 280256Z AUTO 19003KT 10SM CLR 11/10 A2998 RMK AO2 SLP173 P0001 6//// T01060100 51023
KEEN 280156Z AUTO 19004KT 10SM CLR 12/11 A2998 RMK AO2 SLP170 P0001 T01170111
KEEN 280056Z AUTO 16004KT 10SM CLR 13/13 A2995 RMK AO2 RAE11 SLP161 T01330128
KEEN 272356Z AUTO 08004KT 6SM -RA BR FEW035 SCT047 BKN070 15/13 A2992 RMK AO2 LTG DSNT E AND SE RAB43 PRESFR SLP149 6//// T01500133 10228 20150 50006 PNO $
KEEN 272256Z AUTO 33004KT 10SM FEW035 SCT044 SCT070 16/14 A2992 RMK AO2 LTG DSNT NE AND E TSE38RAE39 SLP151 P0000 T01610139
KEEN 272244Z AUTO 35006KT 10SM FEW033 BKN041 OVC070 17/13 A2991 RMK AO2 LTG DSNT NE TSE38RAE39 P0000
KEEN 272156Z AUTO 33008KT 10SM -TSRA OVC034 17/12 A2990 RMK AO2 LTG DSNT N AND NW TSB13E30B32RAB56 SLP142 P0000 T01670117
KEEN 272132Z AUTO 31007KT 10SM VCTS SCT038 BKN045 BKN055 18/12 A2989 RMK AO2 TSB13E30B32
KEEN 272119Z AUTO 34009KT 10SM VCTS SCT038 BKN070 18/12 A2990 RMK AO2 LTG DSNT NW TSB13
KEEN 272056Z AUTO 33008KT 10SM FEW035 SCT065 19/12 A2990 RMK AO2 LTG DSNT NE AND W TSE23RAB12E23 SLP141 P0000 60000 T01940122 55009
KEEN 272029Z AUTO VRB04KT 10SM CLR 21/13 A2989 RMK AO2 LTG DSNT NW-NE TSE23RAB12E23 P0000
KEEN 271956Z AUTO 18009KT 10SM VCTS FEW085 20/13 A2989 RMK AO2 LTG DSNT W-N TSB30 SLP139 T02000128
KEEN 271936Z AUTO 16012G18KT 10SM TS FEW041 22/14 A2988 RMK AO2 LTG DSNT ALQDS TSB30
KEEN 271856Z AUTO 19011KT 10SM FEW039 22/13 A2991 RMK AO2 LTG DSNT N AND NW TSE04 SLP143 T02220133
KEEN 271810Z AUTO 21009KT 10SM SCT039 22/13 A2991 RMK AO2 LTG DSNT NE AND S AND NW TSE04
KEEN 271756Z AUTO 20008KT 10SM VCTS FEW037 SCT045 21/14 A2992 RMK AO2 LTG DSNT E TSB28E43B49 SLP149 60000 T02110139 10211 20139 58026
KEEN 271749Z AUTO 19004KT 10SM VCTS FEW037 21/14 A2993 RMK AO2 TSB28E43B49
KEEN 271734Z AUTO 00000KT 10SM VCTS FEW120 19/16 A2993 RMK AO2 TSB28
KEEN 271656Z AUTO 00000KT 10SM BKN060 18/14 A2996 RMK AO2 RAE13 SLP162 P0000 T01830144
KEEN 271556Z AUTO 00000KT 10SM -RA FEW035 OVC060 17/14 A2998 RMK AO2 RAB46 SLP171 P0000 T01720144 TSNO
KEEN 271456Z AUTO 00000KT 10SM BKN080 17/13 A3000 RMK AO2 SLP177 T01670133 58009
KEEN 271356Z AUTO 15004KT 10SM FEW060 BKN100 16/13 A3003 RMK AO2 SLP187 T01560133
KEEN 271256Z AUTO 00000KT 10SM FEW006 BKN060 OVC100 14/13 A3005 RMK AO2 SLP193 T01440133
KEEN 271156Z AUTO 00000KT 10SM SCT002 14/13 A3003 RMK AO2 SLP185 60001 70009 T01390128 10139 20122 53014
KEEN 271136Z AUTO 00000KT 10SM SCT002 13/13 A3002 RMK AO2
KEEN 271114Z AUTO 18003KT 10SM BKN002 13/13 A3002 RMK AO2
KEEN 271107Z AUTO 00000KT 10SM SCT002 13/13 A3001 RMK AO2
KEEN 271056Z AUTO 00000KT 10SM BKN002 13/13 A3001 RMK AO2 SLP179 T01280128
KEEN 271032Z AUTO 00000KT 5SM BR BKN002 13/13 A3000 RMK AO2
KEEN 271029Z AUTO 00000KT 1 1/4SM BR BKN002 13/13 A3000 RMK AO2 VIS 1/4V5
KEEN 271027Z AUTO 00000KT 3/4SM BR BKN002 13/13 A3000 RMK AO2 VIS 1/4V5
KEEN 271019Z AUTO 00000KT 1/2SM FG SCT002 BKN110 13/13 A3000 RMK AO2
KEEN 271016Z AUTO 00000KT 1SM BR FEW002 SCT110 13/13 A3000 RMK AO2
KEEN 271014Z AUTO 00000KT 2SM BR FEW002 SCT110 13/13 A3000 RMK AO2
KEEN 270956Z AUTO 20003KT 10SM FEW100 13/12 A3000 RMK AO2 SLP176 T01280122
KEEN 270856Z AUTO 00000KT 10SM FEW001 BKN095 13/12 A2999 RMK AO2 RAB17E52 SLP170 P0001 60001 T01330122 58009
KEEN 270848Z AUTO 00000KT 10SM -RA SCT003 BKN100 13/13 A2999 RMK AO2 RAB17 P0001
KEEN 270820Z AUTO 16003KT 8SM -RA OVC001 13/13 A3000 RMK AO2 RAB17 P0000
KEEN 270810Z AUTO 18003KT 2 1/2SM BR BKN001 OVC070 13/13 A3000 RMK AO2 VIS 1 3/4V3
KEEN 270756Z AUTO 20003KT 6SM BR BKN001 BKN070 BKN100 13/13 A3000 RMK AO2 SLP176 T01280128
KEEN 270720Z AUTO 00000KT 8SM FEW001 13/13 A3000 RMK AO2
KEEN 270656Z AUTO 00000KT 10SM FEW060 13/13 A3001 RMK AO2 SLP177 T01280128
KEEN 270556Z AUTO 00000KT 10SM FEW003 SCT070 BKN120 14/13 A3001 RMK AO2 SLP180 P0002 60008 T01390133 10194 20133 50002
KEEN 270554Z AUTO 00000KT 10SM FEW003 SCT070 BKN120 14/13 A3001 RMK AO2 P0002
KEEN 270456Z AUTO 26003KT 10SM FEW075 OVC100 14/13 A3001 RMK AO2 RAB03E26 SLP179 P0003 T01440133 402330117
KEEN 270356Z AUTO 22003KT 10SM BKN065 BKN085 OVC110 14/14 A3001 RMK AO2 RAB08E52 SLP177 P0002 T01440139
KEEN 270256Z AUTO 00000KT 10SM OVC110 14/14 A2999 RMK AO2 SLP172 60001 T01440139 58004
KEEN 270156Z AUTO 08003KT 10SM BKN070 BKN090 OVC110 15/14 A3001 RMK AO2 RAE19 SLP177 P0000 T01500139
KEEN 270056Z AUTO 00000KT 10SM RA FEW038 SCT049 OVC070 15/13 A3000 RMK AO2 RAB05 SLP177 P0001 T01500133
KEEN 262356Z AUTO VRB06KT 10SM BKN060 OVC090 19/12 A3000 RMK AO2 PRESRR SLP176 60000 T01940117 10233 20189 53016
KEEN 262256Z AUTO 00000KT 10SM SCT110 21/13 A2995 RMK AO2 SLP159 T02060133
KEEN 262156Z AUTO 00000KT 10SM FEW110 21/12 A2996 RMK AO2 RAB05E22 SLP161 P0000 T02110122
KEEN 262056Z AUTO 23003KT 10SM SCT075 BKN090 22/12 A2996 RMK AO2 SLP161 T02170117 55003
KEEN 261956Z AUTO 04009KT 10SM FEW060 22/11 A2995 RMK AO2 SLP160 T02170106
KEEN 261856Z AUTO 32005KT 10SM BKN060 22/10 A2996 RMK AO2 SLP159 T02170100
KEEN 261756Z AUTO 32005KT 10SM SCT085 BKN100 22/10 A2997 RMK AO2 SLP163 T02170100 10228 20172 58008
KEEN 261656Z AUTO VRB06KT 10SM BKN055 OVC070 23/10 A2998 RMK AO2 SLP166 T02280100
KEEN 261556Z AUTO VRB05KT 10SM BKN055 BKN070 22/09 A2998 RMK AO2 SLP167 T02170094


Page loaded:  03:38 UTC  |   08:38 PM Pacific  |   09:38 PM Mountain  |   10:38 PM Central  |   11:38 PM Eastern

 

ADVISORIES

FORECASTS

FORECASTS

OBSERVATIONS

USER TOOLS

ABOUT US